createdAt,value
2023-05-03T00:01:23.003Z,65.56
2023-05-03T00:03:54.429Z,66.05
2023-05-03T00:06:26.313Z,66.65
2023-05-03T00:08:57.830Z,67.20
2023-05-03T00:11:29.474Z,66.73
2023-05-03T00:14:00.956Z,67.54
2023-05-03T00:16:32.876Z,68.22
2023-05-03T00:19:04.485Z,66.73
2023-05-03T00:21:36.208Z,67.50
2023-05-03T00:24:07.681Z,67.28
2023-05-03T00:26:39.713Z,68.23
2023-05-03T00:29:11.182Z,68.67
2023-05-03T00:31:42.956Z,68.53
2023-05-03T00:34:14.937Z,69.22
2023-05-03T00:36:46.700Z,69.88
2023-05-03T00:39:18.157Z,70.58
2023-05-03T00:41:49.659Z,70.82
2023-05-03T00:44:21.110Z,71.95
2023-05-03T00:46:52.632Z,71.83
2023-05-03T00:49:24.132Z,72.59
2023-05-03T00:51:55.625Z,73.01
2023-05-03T00:54:27.061Z,73.36
2023-05-03T00:56:58.706Z,74.07
2023-05-03T00:59:30.152Z,75.25
2023-05-03T01:02:01.743Z,75.52
2023-05-03T01:04:33.438Z,76.34
2023-05-03T01:07:05.233Z,76.61
2023-05-03T01:09:36.673Z,76.58
2023-05-03T01:12:08.314Z,77.80
2023-05-03T01:14:39.765Z,77.88
2023-05-03T01:17:11.629Z,77.98
2023-05-03T01:19:43.090Z,79.12
2023-05-03T01:22:14.954Z,79.26
2023-05-03T01:24:46.405Z,79.53
2023-05-03T01:27:18.360Z,80.37
2023-05-03T01:29:49.832Z,80.19
2023-05-03T01:32:21.652Z,81.19
2023-05-03T01:34:53.345Z,80.54
2023-05-03T01:37:25.153Z,80.66
2023-05-03T01:39:56.635Z,81.37
2023-05-03T01:42:28.467Z,81.47
2023-05-03T01:45:00.000Z,81.36
2023-05-03T01:47:31.947Z,81.98
2023-05-03T01:50:03.713Z,82.44
2023-05-03T01:52:35.756Z,82.69
2023-05-03T01:55:07.185Z,82.70
2023-05-03T01:57:38.953Z,83.56
2023-05-03T02:00:10.460Z,83.77
2023-05-03T02:02:41.991Z,84.21
2023-05-03T02:05:13.558Z,84.54
2023-05-03T02:07:45.411Z,84.70
2023-05-03T02:10:16.915Z,84.21
2023-05-03T02:12:48.845Z,85.11
2023-05-03T02:15:20.805Z,85.35
2023-05-03T02:17:53.784Z,86.18
2023-05-03T02:20:25.633Z,85.47
2023-05-03T02:22:57.126Z,86.63
2023-05-03T02:25:28.969Z,86.92
2023-05-03T02:28:00.451Z,86.93
2023-05-03T02:30:32.473Z,86.55
2023-05-03T02:33:04.112Z,87.06
2023-05-03T02:35:36.207Z,88.44
2023-05-03T02:38:07.682Z,88.13
2023-05-03T02:40:39.435Z,88.17
2023-05-03T02:43:10.940Z,87.89
2023-05-03T02:45:42.856Z,88.13
2023-05-03T02:48:14.311Z,87.66
2023-05-03T02:50:45.968Z,87.51
2023-05-03T02:53:17.426Z,88.49
2023-05-03T02:55:49.289Z,87.83
2023-05-03T02:58:20.802Z,88.12
2023-05-03T03:00:52.355Z,89.15
2023-05-03T03:03:23.996Z,88.10
2023-05-03T03:05:55.566Z,88.17
2023-05-03T03:08:27.029Z,87.55
2023-05-03T03:10:58.898Z,87.66
2023-05-03T03:13:30.548Z,87.40
2023-05-03T03:16:02.090Z,88.14
2023-05-03T03:18:33.959Z,88.41
2023-05-03T03:21:05.483Z,88.10
2023-05-03T03:23:36.985Z,87.80
2023-05-03T03:26:08.430Z,88.10
2023-05-03T03:28:40.287Z,89.09
2023-05-03T03:31:11.881Z,88.64
2023-05-03T03:33:43.782Z,89.21
2023-05-03T03:36:15.315Z,89.07
2023-05-03T03:38:46.804Z,88.84
2023-05-03T03:41:18.255Z,89.24
2023-05-03T03:43:49.764Z,90.35
2023-05-03T03:46:22.315Z,90.07
2023-05-03T03:48:53.864Z,89.80
2023-05-03T03:51:25.368Z,89.67
2023-05-03T03:53:56.877Z,89.67
2023-05-03T03:56:28.354Z,89.47
2023-05-03T04:01:52.840Z,90.65
2023-05-03T04:04:24.983Z,90.03
2023-05-03T04:06:56.519Z,88.86
2023-05-03T04:09:28.182Z,88.28
2023-05-03T04:11:59.626Z,88.40
2023-05-03T04:14:31.385Z,88.36
2023-05-03T04:17:02.936Z,88.15
2023-05-03T04:19:34.750Z,87.13
2023-05-03T04:22:06.201Z,86.46
2023-05-03T04:24:37.671Z,86.74
2023-05-03T04:27:09.147Z,86.17
2023-05-03T04:29:40.950Z,86.12
2023-05-03T04:32:12.424Z,86.01
2023-05-03T04:34:44.382Z,85.46
2023-05-03T04:37:15.929Z,85.69
2023-05-03T04:39:47.637Z,84.19
2023-05-03T04:42:19.092Z,84.12
2023-05-03T04:44:50.593Z,83.82
2023-05-03T04:47:22.093Z,83.49
2023-05-03T04:49:53.576Z,82.43
2023-05-03T04:52:25.050Z,81.53
2023-05-03T04:54:56.543Z,80.33
2023-05-03T04:57:28.023Z,80.07
2023-05-03T04:59:59.841Z,79.82
2023-05-03T05:02:31.370Z,78.48
2023-05-03T05:05:03.160Z,78.66
2023-05-03T05:07:34.638Z,78.01
2023-05-03T05:10:06.489Z,76.64
2023-05-03T05:12:37.970Z,76.18
2023-05-03T05:15:09.751Z,75.15
2023-05-03T05:17:41.369Z,74.62
2023-05-03T05:20:13.021Z,76.26
2023-05-03T05:22:44.599Z,72.91
2023-05-03T05:25:16.458Z,74.04
2023-05-03T05:27:47.924Z,72.05
2023-05-03T05:30:19.821Z,71.27
2023-05-03T05:35:29.003Z,69.91
2023-05-03T05:38:00.517Z,69.74
2023-05-03T05:40:32.448Z,69.13
2023-05-03T05:43:03.942Z,68.01
2023-05-03T05:45:35.819Z,66.33
2023-05-03T05:48:07.317Z,66.81
2023-05-03T05:50:39.040Z,65.22
2023-05-03T05:53:10.509Z,64.84
2023-05-03T05:55:42.573Z,64.21
2023-05-03T05:58:14.051Z,64.27
2023-05-03T06:00:45.784Z,62.80
2023-05-03T06:03:17.294Z,63.20
2023-05-03T06:05:49.059Z,62.16
2023-05-03T06:08:20.613Z,61.71
2023-05-03T06:10:52.088Z,61.21
2023-05-03T06:13:23.947Z,60.87
2023-05-03T06:15:55.404Z,61.04
2023-05-03T06:18:27.232Z,59.36
2023-05-03T06:20:58.759Z,58.30
2023-05-03T06:23:33.587Z,59.13
2023-05-03T06:26:05.074Z,58.56
2023-05-03T06:28:36.849Z,59.26
2023-05-03T06:31:08.431Z,57.42
2023-05-03T06:33:40.307Z,56.97
2023-05-03T06:36:11.786Z,55.88
2023-05-03T06:38:43.609Z,55.72
2023-05-03T06:41:15.105Z,55.01
2023-05-03T06:43:49.285Z,53.53
2023-05-03T06:46:23.116Z,53.91
2023-05-03T06:48:54.610Z,53.56
2023-05-03T06:51:26.091Z,52.66
2023-05-03T06:53:57.938Z,51.08
2023-05-03T06:56:29.392Z,51.71
2023-05-03T06:59:01.194Z,51.12
2023-05-03T07:01:32.705Z,51.29
2023-05-03T07:04:04.624Z,49.93
2023-05-03T07:06:48.265Z,49.42
2023-05-03T07:12:01.121Z,48.43
2023-05-03T07:14:33.029Z,48.96
2023-05-03T07:17:04.536Z,48.38
2023-05-03T07:19:36.345Z,46.47
2023-05-03T07:22:07.817Z,49.16
2023-05-03T07:24:39.512Z,46.65
2023-05-03T07:27:11.069Z,48.16
2023-05-03T07:29:42.767Z,46.57
2023-05-03T07:32:14.271Z,46.37
2023-05-03T07:34:46.029Z,45.13
2023-05-03T07:37:17.512Z,44.86
2023-05-03T07:39:52.213Z,46.57
2023-05-03T07:42:23.965Z,45.65
2023-05-03T07:44:55.521Z,44.62
2023-05-03T07:47:27.334Z,44.71
2023-05-03T07:49:58.853Z,43.59
2023-05-03T07:52:30.490Z,45.46
2023-05-03T07:55:02.046Z,42.47
2023-05-03T07:57:33.830Z,44.02
2023-05-03T08:00:05.517Z,42.66
2023-05-03T08:02:37.211Z,45.53
2023-05-03T08:05:08.912Z,45.59
2023-05-03T08:07:40.751Z,46.17
2023-05-03T08:10:12.217Z,44.31
2023-05-03T08:12:44.010Z,43.22
2023-05-03T08:15:15.465Z,42.75
2023-05-03T08:17:47.180Z,44.50
2023-05-03T08:20:18.696Z,42.69
2023-05-03T08:22:50.197Z,43.21
2023-05-03T08:25:21.718Z,42.06
2023-05-03T08:27:53.187Z,42.17
2023-05-03T08:30:24.645Z,42.08
2023-05-03T08:32:56.157Z,42.53
2023-05-03T08:35:27.748Z,44.60
2023-05-03T08:37:59.571Z,43.70
2023-05-03T08:40:31.033Z,43.24
2023-05-03T08:43:02.843Z,40.08
2023-05-03T08:45:34.302Z,41.59
2023-05-03T08:48:05.830Z,40.67
2023-05-03T08:50:37.307Z,37.80
2023-05-03T08:53:09.129Z,40.52
2023-05-03T08:55:40.942Z,39.93
2023-05-03T08:58:12.514Z,39.47
2023-05-03T09:00:44.268Z,41.28
2023-05-03T09:03:15.832Z,40.33
2023-05-03T09:05:47.810Z,38.28
2023-05-03T09:08:19.278Z,37.36
2023-05-03T09:10:50.757Z,36.56
2023-05-03T09:13:22.670Z,37.18
2023-05-03T09:15:54.479Z,37.78
2023-05-03T09:18:26.386Z,39.39
2023-05-03T09:20:59.077Z,39.49
2023-05-03T09:23:31.178Z,40.40
2023-05-03T09:26:02.819Z,40.08
2023-05-03T09:28:34.372Z,39.87
2023-05-03T09:31:06.179Z,38.73
2023-05-03T09:33:37.637Z,39.21
2023-05-03T09:36:09.085Z,37.70
2023-05-03T09:38:40.537Z,37.62
2023-05-03T09:41:12.258Z,39.36
2023-05-03T09:43:43.802Z,36.93
2023-05-03T09:46:15.496Z,37.90
2023-05-03T09:48:47.000Z,39.26
2023-05-03T09:51:18.519Z,40.01
2023-05-03T09:53:49.991Z,36.48
2023-05-03T09:56:21.891Z,34.32
2023-05-03T09:58:53.671Z,34.53
2023-05-03T10:01:25.644Z,33.73
2023-05-03T10:03:57.598Z,34.38
2023-05-03T10:06:29.161Z,35.06
2023-05-03T10:09:01.292Z,34.92
2023-05-03T10:11:32.732Z,34.26
2023-05-03T10:14:04.501Z,37.33
2023-05-03T10:16:36.065Z,36.20
2023-05-03T10:19:07.817Z,37.86
2023-05-03T10:21:39.285Z,36.11
2023-05-03T10:24:10.971Z,34.81
2023-05-03T10:26:42.428Z,35.16
2023-05-03T10:29:14.063Z,35.31
2023-05-03T10:31:45.578Z,35.07
2023-05-03T10:34:17.089Z,33.50
2023-05-03T10:36:50.055Z,33.75
2023-05-03T10:39:21.710Z,32.88
2023-05-03T10:41:53.507Z,33.19
2023-05-03T10:44:25.040Z,33.01
2023-05-03T10:46:56.760Z,33.92
2023-05-03T10:49:28.221Z,34.50
2023-05-03T10:52:00.033Z,34.62
2023-05-03T10:54:31.499Z,35.50
2023-05-03T10:57:03.243Z,37.12
2023-05-03T10:59:34.687Z,36.30
2023-05-03T11:02:06.725Z,34.87
2023-05-03T11:04:38.387Z,34.59
2023-05-03T11:07:09.878Z,34.86
2023-05-03T11:09:41.999Z,35.59
2023-05-03T11:12:13.483Z,34.89
2023-05-03T11:14:45.311Z,32.01
2023-05-03T11:17:16.812Z,30.98
2023-05-03T11:19:48.508Z,32.89
2023-05-03T11:22:19.984Z,35.21
2023-05-03T11:24:51.893Z,34.39
2023-05-03T11:27:23.718Z,36.17
2023-05-03T11:29:55.646Z,32.92
2023-05-03T11:32:27.456Z,31.95
2023-05-03T11:34:58.954Z,32.11
2023-05-03T11:37:30.574Z,31.80
2023-05-03T11:40:02.037Z,30.32
2023-05-03T11:42:33.586Z,31.13
2023-05-03T11:45:05.442Z,32.90
2023-05-03T11:47:37.180Z,33.71
2023-05-03T11:50:08.707Z,32.83
2023-05-03T11:52:40.185Z,33.93
2023-05-03T11:55:11.640Z,34.62
2023-05-03T11:57:43.805Z,36.70
2023-05-03T12:00:15.325Z,33.80
2023-05-03T12:02:47.003Z,33.05
2023-05-03T12:05:19.482Z,33.74
2023-05-03T12:07:51.790Z,31.73
2023-05-03T12:10:26.554Z,32.20
2023-05-03T12:13:00.117Z,33.12
2023-05-03T12:15:33.931Z,31.64
2023-05-03T12:18:05.919Z,33.83
2023-05-03T12:23:14.957Z,32.93
2023-05-03T12:25:49.231Z,33.07
2023-05-03T12:28:21.502Z,32.38
2023-05-03T12:30:53.662Z,31.47
2023-05-03T12:33:28.136Z,32.34
2023-05-03T12:36:02.216Z,32.95
2023-05-03T12:38:37.495Z,31.93
2023-05-03T12:41:09.584Z,32.83
2023-05-03T12:43:43.424Z,33.39
2023-05-03T12:46:33.077Z,32.32
2023-05-03T12:49:07.718Z,32.77
2023-05-03T12:51:42.583Z,31.58
2023-05-03T12:54:18.589Z,32.11
2023-05-03T12:56:54.790Z,31.20
2023-05-03T13:04:56.798Z,30.33
2023-05-03T13:07:29.231Z,30.71
2023-05-03T13:12:36.447Z,30.00
2023-05-03T13:15:08.362Z,30.59
2023-05-03T13:17:40.040Z,31.58
2023-05-03T13:20:11.846Z,29.64
2023-05-03T13:22:43.300Z,29.26
2023-05-03T13:25:15.408Z,29.05
2023-05-03T13:27:46.916Z,28.14
2023-05-03T13:30:18.579Z,28.45
2023-05-03T13:32:50.060Z,28.77
2023-05-03T13:35:21.882Z,27.51
2023-05-03T13:37:53.376Z,27.28
2023-05-03T13:40:25.242Z,27.74
2023-05-03T13:42:57.056Z,27.52
2023-05-03T13:45:28.848Z,26.64
2023-05-03T13:48:15.685Z,27.11
2023-05-03T13:50:49.681Z,26.88
2023-05-03T13:53:21.552Z,27.60
2023-05-03T13:55:54.214Z,29.12
2023-05-03T13:58:25.969Z,28.88
2023-05-03T14:00:57.574Z,29.07
2023-05-03T14:03:29.593Z,28.30
2023-05-03T14:06:01.120Z,25.75
2023-05-03T14:08:32.924Z,26.24
2023-05-03T14:11:06.243Z,27.50
2023-05-03T14:13:53.988Z,28.35
2023-05-03T14:16:39.950Z,27.97
2023-05-03T14:19:12.805Z,28.97
2023-05-03T14:21:44.765Z,29.32
2023-05-03T14:24:16.220Z,28.20
2023-05-03T14:26:47.690Z,27.54
2023-05-03T14:29:19.140Z,29.54
2023-05-03T14:31:50.884Z,30.84
2023-05-03T14:34:22.757Z,29.09
2023-05-03T14:36:54.549Z,28.26
2023-05-03T14:39:26.513Z,25.79
2023-05-03T14:41:58.003Z,26.19
2023-05-03T14:44:30.016Z,23.99
2023-05-03T14:47:01.606Z,24.97
2023-05-03T14:49:33.623Z,24.03
2023-05-03T14:52:05.085Z,23.05
2023-05-03T14:54:36.707Z,23.17
2023-05-03T14:57:08.188Z,24.14
2023-05-03T14:59:39.715Z,23.03
2023-05-03T15:02:11.634Z,23.24
2023-05-03T15:04:43.595Z,24.53
2023-05-03T15:07:15.440Z,23.11
2023-05-03T15:09:46.900Z,24.82
2023-05-03T15:12:18.792Z,27.12
2023-05-03T15:14:50.345Z,26.80
2023-05-03T15:17:22.274Z,25.66
2023-05-03T15:19:53.738Z,26.04
2023-05-03T15:22:25.659Z,25.54
2023-05-03T15:24:57.190Z,26.00
2023-05-03T15:27:28.980Z,26.10
2023-05-03T15:30:00.587Z,25.72
2023-05-03T15:32:32.152Z,25.78
2023-05-03T15:35:04.098Z,26.24
2023-05-03T15:37:35.749Z,26.28
2023-05-03T15:40:07.483Z,26.75
2023-05-03T15:42:39.221Z,26.51
2023-05-03T15:45:11.014Z,25.83
2023-05-03T15:47:42.703Z,25.79
2023-05-03T15:50:14.470Z,26.53
2023-05-03T15:52:45.937Z,26.92
2023-05-03T15:55:17.816Z,27.18
2023-05-03T15:57:49.274Z,27.47
2023-05-03T16:00:20.831Z,28.00
2023-05-03T16:02:52.465Z,29.37
2023-05-03T16:05:24.245Z,29.74
2023-05-03T16:07:56.176Z,29.54
2023-05-03T16:10:28.095Z,30.65
2023-05-03T16:12:59.999Z,31.16
2023-05-03T16:15:31.513Z,31.62
2023-05-03T16:18:03.060Z,33.57
2023-05-03T16:20:34.510Z,33.25
2023-05-03T16:23:06.489Z,33.57
2023-05-03T16:25:37.948Z,35.06
2023-05-03T16:28:09.416Z,34.60
2023-05-03T16:30:40.874Z,35.44
2023-05-03T16:33:12.949Z,35.43
2023-05-03T16:35:44.884Z,36.04
2023-05-03T16:38:16.383Z,36.77
2023-05-03T16:40:48.141Z,36.41
2023-05-03T16:43:19.660Z,37.17
2023-05-03T16:45:51.472Z,36.19
2023-05-03T16:48:22.993Z,37.08
2023-05-03T16:50:54.895Z,37.37
2023-05-03T16:53:26.400Z,37.51
2023-05-03T16:55:58.410Z,36.88
2023-05-03T16:58:29.918Z,37.86
2023-05-03T17:01:01.728Z,37.90
2023-05-03T17:03:33.528Z,39.61
2023-05-03T17:06:05.270Z,40.94
2023-05-03T17:08:36.804Z,41.02
2023-05-03T17:11:08.289Z,40.89
2023-05-03T17:13:39.832Z,41.29
2023-05-03T17:16:11.355Z,42.21
2023-05-03T17:18:43.216Z,43.03
2023-05-03T17:21:14.745Z,43.45
2023-05-03T17:23:46.566Z,43.61
2023-05-03T17:26:18.057Z,43.94
2023-05-03T17:28:49.899Z,44.31
2023-05-03T17:31:21.425Z,43.96
2023-05-03T17:33:53.176Z,44.81
2023-05-03T17:36:24.816Z,44.85
2023-05-03T17:38:56.672Z,44.69
2023-05-03T17:41:28.626Z,45.17
2023-05-03T17:44:00.149Z,44.61
2023-05-03T17:46:32.998Z,45.44
2023-05-03T17:49:06.061Z,46.33
2023-05-03T17:51:37.552Z,45.33
2023-05-03T17:54:09.097Z,46.25
2023-05-03T17:56:41.074Z,46.20
2023-05-03T17:59:12.546Z,46.84
2023-05-03T18:01:44.112Z,46.95
2023-05-03T18:04:15.817Z,46.65
2023-05-03T18:06:47.623Z,47.44
2023-05-03T18:09:19.677Z,48.15
2023-05-03T18:11:51.153Z,47.49
2023-05-03T18:14:22.850Z,47.13
2023-05-03T18:16:54.997Z,48.69
2023-05-03T18:19:26.704Z,48.59
2023-05-03T18:21:58.200Z,48.47
2023-05-03T18:24:30.006Z,49.32
2023-05-03T18:27:01.468Z,48.26
2023-05-03T18:29:33.142Z,49.18
2023-05-03T18:32:04.696Z,49.26
2023-05-03T18:34:36.234Z,49.88
2023-05-03T18:37:07.792Z,50.27
2023-05-03T18:39:39.258Z,50.14
2023-05-03T18:42:11.173Z,51.18
2023-05-03T18:44:42.669Z,51.90
2023-05-03T18:47:14.598Z,52.16
2023-05-03T18:49:46.201Z,52.10
2023-05-03T18:52:17.749Z,52.52
2023-05-03T18:54:49.336Z,52.54
2023-05-03T18:57:21.307Z,53.51
2023-05-03T19:00:00.783Z,53.00
2023-05-03T19:02:33.243Z,53.69
2023-05-03T19:05:05.213Z,52.92
2023-05-03T19:07:36.726Z,53.54
2023-05-03T19:10:08.553Z,53.12
2023-05-03T19:12:40.064Z,53.57
2023-05-03T19:15:11.998Z,54.02
2023-05-03T19:17:43.560Z,54.22
2023-05-03T19:20:15.128Z,54.38
2023-05-03T19:22:46.631Z,55.05
2023-05-03T19:25:18.458Z,55.11
2023-05-03T19:27:49.906Z,56.09
2023-05-03T19:30:21.763Z,56.37
2023-05-03T19:32:53.636Z,56.71
2023-05-03T19:35:25.567Z,56.90
2023-05-03T19:37:57.421Z,57.19
2023-05-03T19:40:28.918Z,57.55
2023-05-03T19:43:00.413Z,57.79
2023-05-03T19:45:31.954Z,58.17
2023-05-03T19:48:03.809Z,59.11
2023-05-03T19:50:35.341Z,59.27
2023-05-03T19:53:06.794Z,58.57
2023-05-03T19:55:38.231Z,59.01
2023-05-03T19:58:09.727Z,59.66
2023-05-03T20:00:41.190Z,60.08
2023-05-03T20:03:13.689Z,60.76
2023-05-03T20:05:45.532Z,60.66
2023-05-03T20:08:16.992Z,61.10
2023-05-03T20:10:48.848Z,61.48
2023-05-03T20:13:20.338Z,61.54
2023-05-03T20:15:52.298Z,62.95
2023-05-03T20:18:23.766Z,62.10
2023-05-03T20:20:55.516Z,63.82
2023-05-03T20:23:27.006Z,63.54
2023-05-03T20:25:58.849Z,62.71
2023-05-03T20:28:30.325Z,64.10
2023-05-03T20:31:02.163Z,64.41
2023-05-03T20:33:33.614Z,64.28
2023-05-03T20:36:05.433Z,65.83
2023-05-03T20:38:36.902Z,66.91
2023-05-03T20:41:08.828Z,66.71
2023-05-03T20:43:40.280Z,66.96
2023-05-03T20:46:12.185Z,67.17
2023-05-03T20:48:43.690Z,68.26
2023-05-03T20:51:15.466Z,68.10
2023-05-03T20:53:46.940Z,68.27
2023-05-03T20:56:18.816Z,68.90
2023-05-03T20:58:50.284Z,68.76
2023-05-03T21:01:21.864Z,69.99
2023-05-03T21:03:53.341Z,69.78
2023-05-03T21:06:25.133Z,70.00
2023-05-03T21:08:56.599Z,70.52
2023-05-03T21:11:28.354Z,70.74
2023-05-03T21:14:01.667Z,71.04
2023-05-03T21:16:33.648Z,71.67
2023-05-03T21:19:05.105Z,70.96
2023-05-03T21:21:36.921Z,71.42
2023-05-03T21:24:08.378Z,71.45
2023-05-03T21:26:40.037Z,72.69
2023-05-03T21:29:11.489Z,72.08
2023-05-03T21:31:43.225Z,72.79
2023-05-03T21:34:14.727Z,72.86
2023-05-03T21:36:46.584Z,73.29
2023-05-03T21:39:18.051Z,73.20
2023-05-03T21:41:49.823Z,73.71
2023-05-03T21:44:21.300Z,73.65
2023-05-03T21:46:53.508Z,73.34
2023-05-03T21:49:25.013Z,74.19
2023-05-03T21:51:56.836Z,73.57
2023-05-03T21:54:28.304Z,74.79
2023-05-03T21:57:00.136Z,73.90
2023-05-03T21:59:32.189Z,73.56
2023-05-03T22:02:03.691Z,74.43
2023-05-03T22:04:35.256Z,74.59
2023-05-03T22:07:06.710Z,75.52
2023-05-03T22:09:38.195Z,74.95
2023-05-03T22:12:22.757Z,76.17
2023-05-03T22:14:56.224Z,75.73
2023-05-03T22:17:27.708Z,76.69
2023-05-03T22:19:59.538Z,76.66
2023-05-03T22:22:31.008Z,77.50
2023-05-03T22:25:02.835Z,77.30
2023-05-03T22:27:34.296Z,77.94
2023-05-03T22:30:06.262Z,77.82
2023-05-03T22:32:37.915Z,77.88
2023-05-03T22:35:09.798Z,78.69
2023-05-03T22:37:44.086Z,78.62
2023-05-03T22:40:15.966Z,78.65
2023-05-03T22:42:47.440Z,79.69
2023-05-03T22:45:19.001Z,80.11
2023-05-03T22:47:50.587Z,79.72
2023-05-03T22:50:22.402Z,79.99
2023-05-03T22:52:53.870Z,78.92
2023-05-03T22:55:25.379Z,80.04
2023-05-03T22:57:56.855Z,79.34
2023-05-03T23:00:28.349Z,78.27
2023-05-03T23:02:59.985Z,78.41
2023-05-03T23:05:31.820Z,77.30
2023-05-03T23:08:03.283Z,77.31
2023-05-03T23:10:34.938Z,77.08
2023-05-03T23:13:06.461Z,76.40
2023-05-03T23:15:37.961Z,75.47
2023-05-03T23:18:09.477Z,75.75
2023-05-03T23:20:40.992Z,75.57
2023-05-03T23:23:12.431Z,75.63
2023-05-03T23:25:44.291Z,75.19
2023-05-03T23:28:15.758Z,75.99
2023-05-03T23:30:47.968Z,76.32
2023-05-03T23:33:19.803Z,76.49
2023-05-03T23:35:52.253Z,76.06
2023-05-03T23:38:23.752Z,76.57
2023-05-03T23:40:55.617Z,77.20
2023-05-03T23:43:27.131Z,77.65
2023-05-03T23:45:58.844Z,77.87
2023-05-03T23:48:30.332Z,78.05
2023-05-03T23:51:02.354Z,79.18
2023-05-03T23:53:33.810Z,78.93
2023-05-03T23:56:05.553Z,79.38
2023-05-03T23:58:37.025Z,80.06
